createdAt,value
2018-07-24T00:00:03.471Z,18.40
2018-07-24T00:04:58.050Z,18.40
2018-07-24T00:09:52.652Z,18.40
2018-07-24T00:14:47.236Z,18.50
2018-07-24T00:19:41.921Z,18.40
2018-07-24T00:24:36.619Z,18.40
2018-07-24T00:29:31.244Z,18.20
2018-07-24T00:34:25.813Z,18.20
2018-07-24T00:39:20.440Z,18.20
2018-07-24T00:44:15.043Z,18.20
2018-07-24T00:49:09.685Z,18.10
2018-07-24T00:54:04.387Z,18.00
2018-07-24T00:58:59.003Z,17.90
2018-07-24T01:03:53.615Z,17.90
2018-07-24T01:08:48.244Z,17.80
2018-07-24T01:13:42.895Z,17.60
2018-07-24T01:18:37.485Z,17.70
2018-07-24T01:23:32.107Z,17.80
2018-07-24T01:28:26.711Z,17.70
2018-07-24T01:33:21.292Z,17.70
2018-07-24T01:38:15.896Z,17.60
2018-07-24T01:43:10.525Z,17.70
2018-07-24T01:48:05.124Z,17.70
2018-07-24T01:52:59.715Z,17.50
2018-07-24T01:57:54.303Z,17.40
2018-07-24T02:02:48.911Z,17.40
2018-07-24T02:07:43.852Z,17.50
2018-07-24T02:12:38.512Z,17.30
2018-07-24T02:17:33.140Z,17.30
2018-07-24T02:22:27.757Z,17.30
2018-07-24T02:27:22.407Z,17.30
2018-07-24T02:32:17.051Z,17.20
2018-07-24T02:37:11.665Z,17.20
2018-07-24T02:42:06.387Z,17.10
2018-07-24T02:51:55.382Z,17.10
2018-07-24T02:56:49.971Z,17.00
2018-07-24T03:01:44.607Z,17.00
2018-07-24T03:06:39.219Z,17.00
2018-07-24T03:11:33.820Z,16.90
2018-07-24T03:16:28.488Z,16.90
2018-07-24T03:21:23.126Z,16.90
2018-07-24T03:26:17.770Z,16.80
2018-07-24T03:31:12.375Z,16.70
2018-07-24T03:36:06.975Z,16.70
2018-07-24T03:41:01.665Z,16.80
2018-07-24T03:45:56.265Z,16.90
2018-07-24T03:50:50.915Z,16.90
2018-07-24T03:55:45.479Z,16.80
2018-07-24T04:00:41.036Z,16.80
2018-07-24T04:05:35.685Z,16.70
2018-07-24T04:10:30.316Z,16.70
2018-07-24T04:15:24.915Z,16.70
2018-07-24T04:20:19.519Z,16.70
2018-07-24T04:25:14.116Z,16.70
2018-07-24T04:30:08.774Z,16.80
2018-07-24T04:35:03.437Z,16.90
2018-07-24T04:39:58.095Z,17.00
2018-07-24T04:44:52.979Z,17.00
2018-07-24T04:49:47.585Z,17.20
2018-07-24T04:54:42.212Z,17.40
2018-07-24T04:59:36.783Z,17.80
2018-07-24T05:04:31.440Z,18.10
2018-07-24T05:09:26.052Z,18.50
2018-07-24T05:14:20.723Z,18.80
2018-07-24T05:19:15.324Z,19.20
2018-07-24T05:24:09.915Z,19.50
2018-07-24T05:29:04.627Z,19.70
2018-07-24T05:33:59.296Z,19.90
2018-07-24T05:38:53.933Z,20.10
2018-07-24T05:43:48.559Z,20.20
2018-07-24T05:48:43.249Z,20.30
2018-07-24T05:53:37.868Z,20.40
2018-07-24T05:58:32.465Z,20.50
2018-07-24T06:03:27.107Z,20.40
2018-07-24T06:08:21.708Z,20.30
2018-07-24T06:13:16.397Z,20.30
2018-07-24T06:18:10.968Z,20.40
2018-07-24T06:23:05.742Z,20.30
2018-07-24T06:28:00.887Z,20.20
2018-07-24T06:32:55.503Z,20.20
2018-07-24T06:37:50.091Z,20.20
2018-07-24T06:42:44.801Z,20.40
2018-07-24T06:47:39.498Z,20.60
2018-07-24T06:52:34.159Z,20.60
2018-07-24T06:57:28.794Z,20.80
2018-07-24T07:02:24.414Z,21.00
2018-07-24T07:07:18.986Z,21.40
2018-07-24T07:12:13.880Z,21.60
2018-07-24T07:17:08.512Z,22.00
2018-07-24T07:22:03.183Z,22.10
2018-07-24T07:26:57.822Z,22.40
2018-07-24T07:31:52.424Z,22.70
2018-07-24T07:36:47.015Z,22.90
2018-07-24T07:41:41.691Z,22.90
2018-07-24T07:46:36.314Z,23.50
2018-07-24T07:51:31.036Z,23.80
2018-07-24T07:56:25.627Z,24.00
2018-07-24T08:01:20.290Z,24.00
2018-07-24T08:11:09.298Z,24.30
2018-07-24T08:16:03.986Z,24.40
2018-07-24T08:20:58.656Z,24.60
2018-07-24T08:25:53.296Z,24.60
2018-07-24T08:30:48.064Z,24.90
2018-07-24T08:35:42.706Z,24.90
2018-07-24T08:40:37.326Z,25.00
2018-07-24T08:45:31.923Z,25.20
2018-07-24T08:50:26.626Z,25.50
2018-07-24T08:55:21.534Z,25.60
2018-07-24T09:00:15.833Z,25.70
2018-07-24T09:05:10.520Z,25.90
2018-07-24T09:10:05.719Z,25.90
2018-07-24T09:15:00.283Z,26.00
2018-07-24T09:19:54.916Z,26.20
2018-07-24T09:24:49.536Z,26.40
2018-07-24T09:34:38.384Z,26.70
2018-07-24T09:39:32.973Z,26.70
2018-07-24T09:44:27.556Z,26.80
2018-07-24T09:49:22.178Z,26.90
2018-07-24T09:54:16.784Z,27.10
2018-07-24T09:59:11.401Z,27.40
2018-07-24T10:04:06.035Z,27.40
2018-07-24T10:09:00.637Z,27.60
2018-07-24T10:13:55.551Z,27.80
2018-07-24T10:18:51.090Z,27.80
2018-07-24T10:23:45.689Z,27.90
2018-07-24T10:28:40.347Z,28.10
2018-07-24T10:38:29.332Z,28.50
2018-07-24T10:43:23.948Z,28.60
2018-07-24T10:48:18.536Z,28.70
2018-07-24T10:53:13.207Z,28.90
2018-07-24T10:58:07.812Z,28.90
2018-07-24T11:03:02.448Z,29.10
2018-07-24T11:07:57.069Z,29.20
2018-07-24T11:12:52.679Z,29.10
2018-07-24T11:17:47.242Z,29.20
2018-07-24T11:22:42.140Z,29.30
2018-07-24T11:27:36.635Z,29.30
2018-07-24T11:32:31.949Z,29.50
2018-07-24T11:37:26.591Z,29.90
2018-07-24T11:42:21.199Z,30.00
2018-07-24T11:47:15.827Z,30.00
2018-07-24T11:52:10.491Z,29.90
2018-07-24T11:57:05.116Z,30.10
2018-07-24T12:06:54.288Z,30.20
2018-07-24T12:11:49.044Z,30.10
2018-07-24T12:16:43.728Z,30.30
2018-07-24T12:21:38.324Z,30.20
2018-07-24T12:26:33.012Z,30.10
2018-07-24T12:31:27.595Z,30.00
2018-07-24T12:36:22.199Z,29.70
2018-07-24T12:41:16.812Z,29.90
2018-07-24T12:46:11.520Z,29.80
2018-07-24T12:56:00.506Z,30.00
2018-07-24T13:00:55.096Z,29.90
2018-07-24T13:05:49.785Z,29.80
2018-07-24T13:10:44.402Z,29.50
2018-07-24T13:15:39.099Z,29.30
2018-07-24T13:20:33.731Z,29.20
2018-07-24T13:25:28.315Z,28.90
2018-07-24T13:30:22.936Z,28.90
2018-07-24T13:35:18.027Z,29.10
2018-07-24T13:40:12.788Z,29.30
2018-07-24T13:45:07.732Z,29.20
2018-07-24T13:50:02.316Z,29.50
2018-07-24T13:54:56.903Z,29.30
2018-07-24T13:59:51.729Z,29.10
2018-07-24T14:04:46.325Z,29.20
2018-07-24T14:09:40.977Z,29.20
2018-07-24T14:14:35.603Z,29.20
2018-07-24T14:19:30.335Z,29.20
2018-07-24T14:24:25.024Z,29.20
2018-07-24T14:29:20.208Z,29.30
2018-07-24T14:34:14.904Z,29.30
2018-07-24T14:39:12.253Z,29.30
2018-07-24T14:44:06.959Z,29.20
2018-07-24T14:49:01.660Z,29.10
2018-07-24T14:53:56.287Z,29.30
2018-07-24T14:58:50.942Z,29.40
2018-07-24T15:03:45.721Z,29.40
2018-07-24T15:08:40.315Z,29.30
2018-07-24T15:13:35.040Z,29.30
2018-07-24T15:18:29.756Z,29.20
2018-07-24T15:23:24.397Z,29.10
2018-07-24T15:28:18.975Z,29.10
2018-07-24T15:33:13.678Z,29.00
2018-07-24T15:38:08.462Z,28.80
2018-07-24T15:43:03.106Z,28.80
2018-07-24T15:47:57.722Z,28.70
2018-07-24T15:52:52.350Z,28.70
2018-07-24T15:57:47.038Z,28.80
2018-07-24T16:02:41.736Z,28.80
2018-07-24T16:07:37.184Z,28.90
2018-07-24T16:12:31.806Z,29.00
2018-07-24T16:17:26.561Z,29.10
2018-07-24T16:22:21.143Z,29.10
2018-07-24T16:27:15.775Z,29.20
2018-07-24T16:32:10.695Z,29.20
2018-07-24T16:37:05.397Z,29.20
2018-07-24T16:41:59.946Z,29.10
2018-07-24T16:46:54.593Z,29.10
2018-07-24T16:51:49.287Z,29.00
2018-07-24T16:56:43.964Z,28.80
2018-07-24T17:01:38.569Z,28.90
2018-07-24T17:06:33.185Z,28.80
2018-07-24T17:11:27.809Z,28.80
2018-07-24T17:16:22.403Z,28.70
2018-07-24T17:21:17.012Z,28.60
2018-07-24T17:26:11.768Z,28.70
2018-07-24T17:31:06.911Z,28.70
2018-07-24T17:36:01.558Z,28.70
2018-07-24T17:40:56.170Z,28.70
2018-07-24T17:45:50.787Z,28.50
2018-07-24T17:50:45.312Z,28.40
2018-07-24T17:55:39.947Z,28.30
2018-07-24T18:05:29.105Z,28.00
2018-07-24T18:10:23.719Z,27.90
2018-07-24T18:15:18.318Z,27.80
2018-07-24T18:20:13.171Z,27.60
2018-07-24T18:25:07.837Z,27.60
2018-07-24T18:30:05.447Z,27.50
2018-07-24T18:35:00.029Z,27.20
2018-07-24T18:39:54.676Z,27.00
2018-07-24T18:44:49.307Z,26.90
2018-07-24T18:49:43.906Z,26.70
2018-07-24T18:54:39.188Z,26.50
2018-07-24T19:04:28.254Z,26.20
2018-07-24T19:09:22.979Z,25.90
2018-07-24T19:14:17.592Z,25.80
2018-07-24T19:19:12.235Z,25.70
2018-07-24T19:24:06.876Z,25.50
2018-07-24T19:29:01.655Z,25.40
2018-07-24T19:33:56.291Z,25.40
2018-07-24T19:38:51.019Z,25.30
2018-07-24T19:43:45.907Z,25.20
2018-07-24T19:48:40.486Z,25.20
2018-07-24T19:53:35.294Z,25.00
2018-07-24T19:58:30.053Z,25.00
2018-07-24T20:03:24.656Z,24.90
2018-07-24T20:08:19.312Z,24.70
2018-07-24T20:13:13.923Z,24.70
2018-07-24T20:18:08.668Z,24.50
2018-07-24T20:23:03.472Z,24.30
2018-07-24T20:27:58.079Z,24.20
2018-07-24T20:32:52.786Z,24.00
2018-07-24T20:37:47.632Z,23.90
2018-07-24T20:42:42.241Z,23.80
2018-07-24T20:47:36.849Z,23.70
2018-07-24T20:52:31.460Z,23.60
2018-07-24T20:57:26.059Z,23.50
2018-07-24T21:02:20.765Z,23.30
2018-07-24T21:07:15.512Z,23.20
2018-07-24T21:12:10.288Z,23.20
2018-07-24T21:17:05.009Z,23.00
2018-07-24T21:21:59.566Z,23.00
2018-07-24T21:26:54.154Z,22.80
2018-07-24T21:31:48.790Z,22.70
2018-07-24T21:36:43.448Z,22.80
2018-07-24T21:41:38.070Z,22.80
2018-07-24T21:46:32.806Z,22.80
2018-07-24T21:51:27.467Z,22.70
2018-07-24T21:56:22.045Z,22.60
2018-07-24T22:01:17.375Z,22.60
2018-07-24T22:06:11.991Z,22.40
2018-07-24T22:11:06.686Z,22.30
2018-07-24T22:16:01.238Z,22.20
2018-07-24T22:20:56.368Z,22.10
2018-07-24T22:25:50.980Z,22.00
2018-07-24T22:30:45.595Z,21.90
2018-07-24T22:35:40.224Z,21.80
2018-07-24T22:40:34.832Z,21.50
2018-07-24T22:45:29.460Z,21.50
2018-07-24T22:50:24.108Z,21.50
2018-07-24T22:55:18.683Z,21.60
2018-07-24T23:00:13.307Z,21.50
2018-07-24T23:05:07.954Z,21.40
2018-07-24T23:10:02.541Z,21.40
2018-07-24T23:14:57.116Z,21.20
2018-07-24T23:19:51.722Z,21.10
2018-07-24T23:24:46.325Z,21.00
2018-07-24T23:29:41.140Z,21.10
2018-07-24T23:34:35.708Z,20.90
2018-07-24T23:39:30.270Z,21.00
2018-07-24T23:44:24.886Z,21.00
2018-07-24T23:49:19.475Z,20.60
2018-07-24T23:54:14.089Z,20.70
2018-07-24T23:59:08.716Z,20.60
